sensor_id;sensor_type;location;lat;lon;timestamp;P1;durP1;ratioP1;P2;durP2;ratioP2
28455;SDS011;15682;56.742;38.866;2023-12-20T00:01:31;1.5;;;0.4;;
28455;SDS011;15682;56.742;38.866;2023-12-20T00:03:31;2.8;;;0.5;;
28455;SDS011;15682;56.742;38.866;2023-12-20T00:05:31;2.8;;;0.4;;
28455;SDS011;15682;56.742;38.866;2023-12-20T00:07:31;3.2;;;0.6;;
28455;SDS011;15682;56.742;38.866;2023-12-20T00:09:31;1.8;;;0.5;;
28455;SDS011;15682;56.742;38.866;2023-12-20T00:11:31;1.6;;;0.4;;
28455;SDS011;15682;56.742;38.866;2023-12-20T00:13:31;1.9;;;0.4;;
28455;SDS011;15682;56.742;38.866;2023-12-20T00:15:31;1.6;;;0.5;;
28455;SDS011;15682;56.742;38.866;2023-12-20T00:17:31;1.1;;;0.4;;
28455;SDS011;15682;56.742;38.866;2023-12-20T00:19:31;2.4;;;0.6;;
28455;SDS011;15682;56.742;38.866;2023-12-20T00:21:31;2.5;;;0.5;;
28455;SDS011;15682;56.742;38.866;2023-12-20T00:23:31;2.5;;;0.5;;
28455;SDS011;15682;56.742;38.866;2023-12-20T00:25:31;2.2;;;0.6;;
28455;SDS011;15682;56.742;38.866;2023-12-20T00:27:31;0.9;;;0.4;;
28455;SDS011;15682;56.742;38.866;2023-12-20T00:29:31;1.6;;;0.5;;
28455;SDS011;15682;56.742;38.866;2023-12-20T00:31:31;3.2;;;0.7;;
28455;SDS011;15682;56.742;38.866;2023-12-20T00:33:31;2.2;;;0.5;;
28455;SDS011;15682;56.742;38.866;2023-12-20T00:35:31;3.3;;;0.6;;
28455;SDS011;15682;56.742;38.866;2023-12-20T00:37:31;2.7;;;0.5;;
28455;SDS011;15682;56.742;38.866;2023-12-20T00:39:31;2.7;;;0.6;;
28455;SDS011;15682;56.742;38.866;2023-12-20T00:41:31;3.5;;;0.5;;
28455;SDS011;15682;56.742;38.866;2023-12-20T00:43:31;2.2;;;0.5;;
28455;SDS011;15682;56.742;38.866;2023-12-20T00:45:31;2.1;;;0.4;;
28455;SDS011;15682;56.742;38.866;2023-12-20T00:47:31;2.3;;;0.5;;
28455;SDS011;15682;56.742;38.866;2023-12-20T00:49:31;1.6;;;0.4;;
28455;SDS011;15682;56.742;38.866;2023-12-20T00:51:31;3.1;;;0.8;;
28455;SDS011;15682;56.742;38.866;2023-12-20T00:53:31;1.5;;;0.4;;
28455;SDS011;15682;56.742;38.866;2023-12-20T00:55:31;2.1;;;0.5;;
28455;SDS011;15682;56.742;38.866;2023-12-20T00:57:31;1.5;;;0.3;;
28455;SDS011;15682;56.742;38.866;2023-12-20T00:59:31;2.5;;;0.6;;
28455;SDS011;15682;56.742;38.866;2023-12-20T01:01:31;1.0;;;0.4;;
28455;SDS011;15682;56.742;38.866;2023-12-20T01:03:30;2.2;;;0.6;;
28455;SDS011;15682;56.742;38.866;2023-12-20T01:05:30;1.3;;;0.5;;
28455;SDS011;15682;56.742;38.866;2023-12-20T01:07:30;2.3;;;0.4;;
28455;SDS011;15682;56.742;38.866;2023-12-20T01:09:30;1.8;;;0.6;;
28455;SDS011;15682;56.742;38.866;2023-12-20T01:11:30;3.3;;;0.5;;
28455;SDS011;15682;56.742;38.866;2023-12-20T01:13:30;2.0;;;0.5;;
28455;SDS011;15682;56.742;38.866;2023-12-20T01:15:30;3.3;;;0.6;;
28455;SDS011;15682;56.742;38.866;2023-12-20T01:17:30;3.2;;;0.5;;
28455;SDS011;15682;56.742;38.866;2023-12-20T01:19:30;1.3;;;0.4;;
28455;SDS011;15682;56.742;38.866;2023-12-20T01:21:30;2.2;;;0.4;;
28455;SDS011;15682;56.742;38.866;2023-12-20T01:23:30;2.4;;;0.5;;
28455;SDS011;15682;56.742;38.866;2023-12-20T01:25:30;1.8;;;0.6;;
28455;SDS011;15682;56.742;38.866;2023-12-20T01:27:30;3.0;;;0.6;;
28455;SDS011;15682;56.742;38.866;2023-12-20T01:29:30;3.3;;;0.6;;
28455;SDS011;15682;56.742;38.866;2023-12-20T01:31:30;2.1;;;0.5;;
28455;SDS011;15682;56.742;38.866;2023-12-20T01:33:30;1.3;;;0.4;;
28455;SDS011;15682;56.742;38.866;2023-12-20T01:35:30;1.8;;;0.6;;
28455;SDS011;15682;56.742;38.866;2023-12-20T01:37:30;2.3;;;0.3;;
28455;SDS011;15682;56.742;38.866;2023-12-20T01:39:30;3.3;;;0.6;;
28455;SDS011;15682;56.742;38.866;2023-12-20T01:41:30;2.2;;;0.5;;
28455;SDS011;15682;56.742;38.866;2023-12-20T01:43:30;2.2;;;0.5;;
28455;SDS011;15682;56.742;38.866;2023-12-20T01:45:30;2.4;;;0.6;;
28455;SDS011;15682;56.742;38.866;2023-12-20T01:47:30;2.9;;;0.9;;
28455;SDS011;15682;56.742;38.866;2023-12-20T01:49:30;3.7;;;1.0;;
28455;SDS011;15682;56.742;38.866;2023-12-20T01:51:31;2.8;;;0.9;;
28455;SDS011;15682;56.742;38.866;2023-12-20T01:53:30;5.0;;;1.3;;
28455;SDS011;15682;56.742;38.866;2023-12-20T01:55:31;3.8;;;1.2;;
28455;SDS011;15682;56.742;38.866;2023-12-20T01:57:30;3.1;;;1.3;;
28455;SDS011;15682;56.742;38.866;2023-12-20T01:59:30;3.5;;;1.4;;
28455;SDS011;15682;56.742;38.866;2023-12-20T02:01:30;4.0;;;1.4;;
28455;SDS011;15682;56.742;38.866;2023-12-20T02:03:30;4.0;;;1.2;;
28455;SDS011;15682;56.742;38.866;2023-12-20T02:05:30;4.7;;;1.1;;
28455;SDS011;15682;56.742;38.866;2023-12-20T02:07:30;2.3;;;0.6;;
28455;SDS011;15682;56.742;38.866;2023-12-20T02:09:30;2.3;;;0.5;;
28455;SDS011;15682;56.742;38.866;2023-12-20T02:11:30;2.2;;;0.6;;
28455;SDS011;15682;56.742;38.866;2023-12-20T02:13:30;2.9;;;0.7;;
28455;SDS011;15682;56.742;38.866;2023-12-20T02:15:30;2.0;;;0.5;;
28455;SDS011;15682;56.742;38.866;2023-12-20T02:17:30;1.5;;;0.6;;
28455;SDS011;15682;56.742;38.866;2023-12-20T02:19:30;2.8;;;0.5;;
28455;SDS011;15682;56.742;38.866;2023-12-20T02:21:31;1.6;;;0.5;;
28455;SDS011;15682;56.742;38.866;2023-12-20T02:23:30;2.1;;;0.6;;
28455;SDS011;15682;56.742;38.866;2023-12-20T02:25:30;1.6;;;0.4;;
28455;SDS011;15682;56.742;38.866;2023-12-20T02:27:30;3.2;;;0.5;;
28455;SDS011;15682;56.742;38.866;2023-12-20T02:29:30;2.9;;;0.6;;
28455;SDS011;15682;56.742;38.866;2023-12-20T02:31:30;2.1;;;0.6;;
28455;SDS011;15682;56.742;38.866;2023-12-20T02:33:30;4.5;;;0.6;;
28455;SDS011;15682;56.742;38.866;2023-12-20T02:35:30;3.7;;;0.7;;
28455;SDS011;15682;56.742;38.866;2023-12-20T02:37:30;4.2;;;1.0;;
28455;SDS011;15682;56.742;38.866;2023-12-20T02:39:30;3.7;;;0.8;;
28455;SDS011;15682;56.742;38.866;2023-12-20T02:41:30;2.5;;;0.6;;
28455;SDS011;15682;56.742;38.866;2023-12-20T02:43:30;2.2;;;0.6;;
28455;SDS011;15682;56.742;38.866;2023-12-20T02:45:30;2.4;;;0.7;;
28455;SDS011;15682;56.742;38.866;2023-12-20T02:47:30;2.6;;;0.5;;
28455;SDS011;15682;56.742;38.866;2023-12-20T02:49:30;2.6;;;0.6;;
28455;SDS011;15682;56.742;38.866;2023-12-20T02:51:30;3.4;;;0.7;;
28455;SDS011;15682;56.742;38.866;2023-12-20T02:53:29;4.1;;;0.6;;
28455;SDS011;15682;56.742;38.866;2023-12-20T02:55:29;2.9;;;0.6;;
28455;SDS011;15682;56.742;38.866;2023-12-20T02:57:29;3.0;;;0.6;;
28455;SDS011;15682;56.742;38.866;2023-12-20T02:59:29;2.1;;;0.6;;
28455;SDS011;15682;56.742;38.866;2023-12-20T03:01:29;2.9;;;0.6;;
28455;SDS011;15682;56.742;38.866;2023-12-20T03:03:29;1.9;;;0.6;;
28455;SDS011;15682;56.742;38.866;2023-12-20T03:05:29;3.2;;;0.8;;
28455;SDS011;15682;56.742;38.866;2023-12-20T03:07:29;3.1;;;0.6;;
28455;SDS011;15682;56.742;38.866;2023-12-20T03:09:29;4.2;;;0.8;;
28455;SDS011;15682;56.742;38.866;2023-12-20T03:11:29;2.6;;;0.6;;
28455;SDS011;15682;56.742;38.866;2023-12-20T03:13:30;3.2;;;0.9;;
28455;SDS011;15682;56.742;38.866;2023-12-20T03:15:29;3.4;;;0.9;;
28455;SDS011;15682;56.742;38.866;2023-12-20T03:17:29;3.8;;;1.0;;
28455;SDS011;15682;56.742;38.866;2023-12-20T03:19:29;2.9;;;0.6;;
28455;SDS011;15682;56.742;38.866;2023-12-20T03:21:29;3.8;;;0.7;;
28455;SDS011;15682;56.742;38.866;2023-12-20T03:23:29;2.6;;;0.6;;
28455;SDS011;15682;56.742;38.866;2023-12-20T03:25:29;3.3;;;0.7;;
28455;SDS011;15682;56.742;38.866;2023-12-20T03:27:29;2.3;;;0.6;;
28455;SDS011;15682;56.742;38.866;2023-12-20T03:29:29;4.4;;;0.8;;
28455;SDS011;15682;56.742;38.866;2023-12-20T03:31:29;3.0;;;0.8;;
28455;SDS011;15682;56.742;38.866;2023-12-20T03:33:29;5.7;;;0.8;;
28455;SDS011;15682;56.742;38.866;2023-12-20T03:35:29;2.0;;;0.6;;
28455;SDS011;15682;56.742;38.866;2023-12-20T03:37:29;2.3;;;0.6;;
28455;SDS011;15682;56.742;38.866;2023-12-20T03:39:29;3.2;;;0.8;;
28455;SDS011;15682;56.742;38.866;2023-12-20T03:41:29;3.5;;;0.8;;
28455;SDS011;15682;56.742;38.866;2023-12-20T03:43:29;3.0;;;0.6;;
28455;SDS011;15682;56.742;38.866;2023-12-20T03:45:29;2.9;;;0.6;;
28455;SDS011;15682;56.742;38.866;2023-12-20T03:47:29;3.3;;;0.7;;
28455;SDS011;15682;56.742;38.866;2023-12-20T03:49:29;3.6;;;0.8;;
28455;SDS011;15682;56.742;38.866;2023-12-20T03:51:29;4.0;;;0.7;;
28455;SDS011;15682;56.742;38.866;2023-12-20T03:53:29;3.4;;;0.8;;
28455;SDS011;15682;56.742;38.866;2023-12-20T03:55:28;4.8;;;0.8;;
28455;SDS011;15682;56.742;38.866;2023-12-20T03:57:28;3.2;;;1.0;;
28455;SDS011;15682;56.742;38.866;2023-12-20T03:59:28;4.9;;;0.8;;
28455;SDS011;15682;56.742;38.866;2023-12-20T04:01:28;8.1;;;0.9;;
28455;SDS011;15682;56.742;38.866;2023-12-20T04:03:28;4.1;;;0.8;;
28455;SDS011;15682;56.742;38.866;2023-12-20T04:05:28;5.3;;;1.1;;
28455;SDS011;15682;56.742;38.866;2023-12-20T04:07:28;2.7;;;0.7;;
28455;SDS011;15682;56.742;38.866;2023-12-20T04:09:28;3.5;;;0.7;;
28455;SDS011;15682;56.742;38.866;2023-12-20T04:11:28;2.9;;;0.8;;
28455;SDS011;15682;56.742;38.866;2023-12-20T04:13:28;3.2;;;1.0;;
28455;SDS011;15682;56.742;38.866;2023-12-20T04:15:28;3.0;;;0.8;;
28455;SDS011;15682;56.742;38.866;2023-12-20T04:17:28;3.9;;;0.7;;
28455;SDS011;15682;56.742;38.866;2023-12-20T04:19:28;3.3;;;0.8;;
28455;SDS011;15682;56.742;38.866;2023-12-20T04:21:28;3.8;;;1.1;;
28455;SDS011;15682;56.742;38.866;2023-12-20T04:23:28;5.5;;;1.4;;
28455;SDS011;15682;56.742;38.866;2023-12-20T04:25:28;5.9;;;1.4;;
28455;SDS011;15682;56.742;38.866;2023-12-20T04:27:28;4.8;;;1.2;;
28455;SDS011;15682;56.742;38.866;2023-12-20T04:29:28;4.2;;;0.9;;
28455;SDS011;15682;56.742;38.866;2023-12-20T04:31:28;2.5;;;0.7;;
28455;SDS011;15682;56.742;38.866;2023-12-20T04:33:28;5.3;;;1.2;;
28455;SDS011;15682;56.742;38.866;2023-12-20T04:35:27;2.9;;;0.9;;
28455;SDS011;15682;56.742;38.866;2023-12-20T04:37:27;4.3;;;1.1;;
28455;SDS011;15682;56.742;38.866;2023-12-20T04:39:27;5.6;;;1.0;;
28455;SDS011;15682;56.742;38.866;2023-12-20T04:41:27;2.7;;;0.9;;
28455;SDS011;15682;56.742;38.866;2023-12-20T04:43:27;5.0;;;1.1;;
28455;SDS011;15682;56.742;38.866;2023-12-20T04:45:27;4.8;;;1.1;;
28455;SDS011;15682;56.742;38.866;2023-12-20T04:47:27;5.1;;;1.2;;
28455;SDS011;15682;56.742;38.866;2023-12-20T04:49:27;3.8;;;1.1;;
28455;SDS011;15682;56.742;38.866;2023-12-20T04:51:27;5.0;;;1.1;;
28455;SDS011;15682;56.742;38.866;2023-12-20T04:53:27;5.3;;;1.3;;
28455;SDS011;15682;56.742;38.866;2023-12-20T04:55:27;5.5;;;1.4;;
28455;SDS011;15682;56.742;38.866;2023-12-20T04:57:27;3.8;;;1.4;;
28455;SDS011;15682;56.742;38.866;2023-12-20T04:59:27;4.0;;;1.2;;
28455;SDS011;15682;56.742;38.866;2023-12-20T05:01:27;5.6;;;1.8;;
28455;SDS011;15682;56.742;38.866;2023-12-20T05:03:27;8.1;;;1.4;;
28455;SDS011;15682;56.742;38.866;2023-12-20T05:05:27;6.4;;;1.5;;
28455;SDS011;15682;56.742;38.866;2023-12-20T05:07:27;4.3;;;1.4;;
28455;SDS011;15682;56.742;38.866;2023-12-20T05:09:27;4.7;;;1.4;;
28455;SDS011;15682;56.742;38.866;2023-12-20T05:11:26;4.2;;;1.4;;
28455;SDS011;15682;56.742;38.866;2023-12-20T05:13:26;4.8;;;1.5;;
28455;SDS011;15682;56.742;38.866;2023-12-20T05:15:26;3.8;;;1.2;;
28455;SDS011;15682;56.742;38.866;2023-12-20T05:17:27;4.5;;;1.4;;
28455;SDS011;15682;56.742;38.866;2023-12-20T05:19:26;4.8;;;1.6;;
28455;SDS011;15682;56.742;38.866;2023-12-20T05:21:26;2.7;;;1.3;;
28455;SDS011;15682;56.742;38.866;2023-12-20T05:23:26;3.8;;;1.5;;
28455;SDS011;15682;56.742;38.866;2023-12-20T05:25:26;6.8;;;1.6;;
28455;SDS011;15682;56.742;38.866;2023-12-20T05:27:26;5.5;;;1.7;;
28455;SDS011;15682;56.742;38.866;2023-12-20T05:29:26;5.2;;;1.9;;
28455;SDS011;15682;56.742;38.866;2023-12-20T05:31:26;4.9;;;1.6;;
28455;SDS011;15682;56.742;38.866;2023-12-20T05:33:26;4.7;;;1.4;;
28455;SDS011;15682;56.742;38.866;2023-12-20T05:35:26;6.8;;;1.6;;
28455;SDS011;15682;56.742;38.866;2023-12-20T05:37:26;7.0;;;1.8;;
28455;SDS011;15682;56.742;38.866;2023-12-20T05:39:26;5.8;;;1.5;;
28455;SDS011;15682;56.742;38.866;2023-12-20T05:41:26;6.0;;;1.7;;
28455;SDS011;15682;56.742;38.866;2023-12-20T05:43:26;4.1;;;1.4;;
28455;SDS011;15682;56.742;38.866;2023-12-20T05:45:26;7.1;;;1.5;;
28455;SDS011;15682;56.742;38.866;2023-12-20T05:47:26;9.0;;;1.9;;
28455;SDS011;15682;56.742;38.866;2023-12-20T05:49:26;6.7;;;2.1;;
28455;SDS011;15682;56.742;38.866;2023-12-20T05:51:26;7.0;;;1.8;;
28455;SDS011;15682;56.742;38.866;2023-12-20T05:53:26;6.7;;;1.5;;
28455;SDS011;15682;56.742;38.866;2023-12-20T05:55:26;7.4;;;1.7;;
28455;SDS011;15682;56.742;38.866;2023-12-20T05:57:25;6.2;;;1.5;;
28455;SDS011;15682;56.742;38.866;2023-12-20T05:59:25;5.4;;;1.5;;
28455;SDS011;15682;56.742;38.866;2023-12-20T06:01:25;6.4;;;1.7;;
28455;SDS011;15682;56.742;38.866;2023-12-20T06:03:25;9.5;;;2.0;;
28455;SDS011;15682;56.742;38.866;2023-12-20T06:05:25;11.5;;;2.0;;
28455;SDS011;15682;56.742;38.866;2023-12-20T06:07:25;9.2;;;1.9;;
28455;SDS011;15682;56.742;38.866;2023-12-20T06:09:26;8.1;;;2.0;;
28455;SDS011;15682;56.742;38.866;2023-12-20T06:11:25;6.8;;;1.7;;
28455;SDS011;15682;56.742;38.866;2023-12-20T06:13:25;6.2;;;1.5;;
28455;SDS011;15682;56.742;38.866;2023-12-20T06:15:25;4.6;;;1.4;;
28455;SDS011;15682;56.742;38.866;2023-12-20T06:17:25;6.0;;;1.7;;
28455;SDS011;15682;56.742;38.866;2023-12-20T06:19:25;10.2;;;1.8;;
28455;SDS011;15682;56.742;38.866;2023-12-20T06:21:25;10.2;;;2.3;;
28455;SDS011;15682;56.742;38.866;2023-12-20T06:23:25;6.9;;;1.6;;
28455;SDS011;15682;56.742;38.866;2023-12-20T06:25:25;5.9;;;1.5;;
28455;SDS011;15682;56.742;38.866;2023-12-20T06:27:25;7.3;;;1.8;;
28455;SDS011;15682;56.742;38.866;2023-12-20T06:29:25;5.9;;;1.9;;
28455;SDS011;15682;56.742;38.866;2023-12-20T06:31:25;12.2;;;2.6;;
28455;SDS011;15682;56.742;38.866;2023-12-20T06:33:25;6.8;;;1.9;;
28455;SDS011;15682;56.742;38.866;2023-12-20T06:35:25;9.3;;;2.0;;
28455;SDS011;15682;56.742;38.866;2023-12-20T06:37:25;6.5;;;1.8;;
28455;SDS011;15682;56.742;38.866;2023-12-20T06:39:25;7.9;;;1.9;;
28455;SDS011;15682;56.742;38.866;2023-12-20T06:41:25;6.6;;;1.7;;
28455;SDS011;15682;56.742;38.866;2023-12-20T06:43:25;4.2;;;1.1;;
28455;SDS011;15682;56.742;38.866;2023-12-20T06:45:25;8.2;;;1.8;;
28455;SDS011;15682;56.742;38.866;2023-12-20T06:47:24;5.0;;;1.5;;
28455;SDS011;15682;56.742;38.866;2023-12-20T06:49:25;3.6;;;1.3;;
28455;SDS011;15682;56.742;38.866;2023-12-20T06:51:24;4.8;;;1.1;;
28455;SDS011;15682;56.742;38.866;2023-12-20T06:53:24;4.6;;;1.2;;
28455;SDS011;15682;56.742;38.866;2023-12-20T06:55:24;6.4;;;1.4;;
28455;SDS011;15682;56.742;38.866;2023-12-20T06:57:24;5.5;;;1.3;;
28455;SDS011;15682;56.742;38.866;2023-12-20T06:59:24;7.9;;;1.8;;
28455;SDS011;15682;56.742;38.866;2023-12-20T07:01:24;6.1;;;1.4;;
28455;SDS011;15682;56.742;38.866;2023-12-20T07:03:24;5.3;;;1.4;;
28455;SDS011;15682;56.742;38.866;2023-12-20T07:05:24;3.7;;;1.1;;
28455;SDS011;15682;56.742;38.866;2023-12-20T07:07:24;5.0;;;1.4;;
28455;SDS011;15682;56.742;38.866;2023-12-20T07:09:24;4.1;;;1.1;;
28455;SDS011;15682;56.742;38.866;2023-12-20T07:11:24;3.4;;;1.1;;
28455;SDS011;15682;56.742;38.866;2023-12-20T07:13:24;4.4;;;1.1;;
28455;SDS011;15682;56.742;38.866;2023-12-20T07:15:24;3.9;;;1.2;;
28455;SDS011;15682;56.742;38.866;2023-12-20T07:17:24;4.6;;;1.2;;
28455;SDS011;15682;56.742;38.866;2023-12-20T07:19:24;5.2;;;1.0;;
28455;SDS011;15682;56.742;38.866;2023-12-20T07:21:24;3.3;;;1.0;;
28455;SDS011;15682;56.742;38.866;2023-12-20T07:23:24;3.7;;;1.0;;
28455;SDS011;15682;56.742;38.866;2023-12-20T07:25:24;5.6;;;1.0;;
28455;SDS011;15682;56.742;38.866;2023-12-20T07:27:24;3.5;;;1.0;;
28455;SDS011;15682;56.742;38.866;2023-12-20T07:29:24;4.2;;;0.8;;
28455;SDS011;15682;56.742;38.866;2023-12-20T07:31:24;2.9;;;0.9;;
28455;SDS011;15682;56.742;38.866;2023-12-20T07:33:24;3.9;;;1.1;;
28455;SDS011;15682;56.742;38.866;2023-12-20T07:35:24;3.4;;;1.0;;
28455;SDS011;15682;56.742;38.866;2023-12-20T07:37:24;7.1;;;1.3;;
28455;SDS011;15682;56.742;38.866;2023-12-20T07:39:24;4.9;;;0.9;;
28455;SDS011;15682;56.742;38.866;2023-12-20T07:41:24;4.6;;;0.9;;
28455;SDS011;15682;56.742;38.866;2023-12-20T07:43:24;4.1;;;0.8;;
28455;SDS011;15682;56.742;38.866;2023-12-20T07:45:24;2.7;;;0.8;;
28455;SDS011;15682;56.742;38.866;2023-12-20T07:47:24;3.7;;;1.1;;
28455;SDS011;15682;56.742;38.866;2023-12-20T07:49:24;4.2;;;1.1;;
28455;SDS011;15682;56.742;38.866;2023-12-20T07:51:24;3.5;;;1.0;;
28455;SDS011;15682;56.742;38.866;2023-12-20T07:53:24;4.4;;;1.2;;
28455;SDS011;15682;56.742;38.866;2023-12-20T07:55:24;3.8;;;1.0;;
28455;SDS011;15682;56.742;38.866;2023-12-20T07:57:24;4.2;;;1.2;;
28455;SDS011;15682;56.742;38.866;2023-12-20T07:59:24;4.1;;;1.1;;
28455;SDS011;15682;56.742;38.866;2023-12-20T08:01:24;6.0;;;1.1;;
28455;SDS011;15682;56.742;38.866;2023-12-20T08:03:24;4.4;;;0.9;;
28455;SDS011;15682;56.742;38.866;2023-12-20T08:05:24;4.0;;;1.1;;
28455;SDS011;15682;56.742;38.866;2023-12-20T08:07:24;13.0;;;2.2;;
28455;SDS011;15682;56.742;38.866;2023-12-20T08:09:24;5.7;;;1.4;;
28455;SDS011;15682;56.742;38.866;2023-12-20T08:11:24;13.9;;;2.1;;
28455;SDS011;15682;56.742;38.866;2023-12-20T08:13:24;6.5;;;1.4;;
28455;SDS011;15682;56.742;38.866;2023-12-20T08:15:24;7.8;;;1.4;;
28455;SDS011;15682;56.742;38.866;2023-12-20T08:17:24;4.6;;;1.2;;
28455;SDS011;15682;56.742;38.866;2023-12-20T08:19:24;6.7;;;1.6;;
28455;SDS011;15682;56.742;38.866;2023-12-20T08:21:24;5.7;;;1.3;;
28455;SDS011;15682;56.742;38.866;2023-12-20T08:23:24;8.2;;;1.8;;
28455;SDS011;15682;56.742;38.866;2023-12-20T08:25:24;7.1;;;1.4;;
28455;SDS011;15682;56.742;38.866;2023-12-20T08:27:24;13.7;;;2.3;;
28455;SDS011;15682;56.742;38.866;2023-12-20T08:29:24;13.9;;;1.7;;
28455;SDS011;15682;56.742;38.866;2023-12-20T08:31:24;12.4;;;1.5;;
28455;SDS011;15682;56.742;38.866;2023-12-20T08:33:24;5.2;;;1.0;;
28455;SDS011;15682;56.742;38.866;2023-12-20T08:35:24;4.1;;;1.0;;
28455;SDS011;15682;56.742;38.866;2023-12-20T08:37:24;5.6;;;1.2;;
28455;SDS011;15682;56.742;38.866;2023-12-20T08:39:24;5.5;;;1.6;;
28455;SDS011;15682;56.742;38.866;2023-12-20T08:41:24;5.5;;;1.1;;
28455;SDS011;15682;56.742;38.866;2023-12-20T08:43:24;4.1;;;1.1;;
28455;SDS011;15682;56.742;38.866;2023-12-20T08:45:24;5.7;;;1.0;;
28455;SDS011;15682;56.742;38.866;2023-12-20T08:47:24;5.4;;;1.1;;
28455;SDS011;15682;56.742;38.866;2023-12-20T08:49:24;3.4;;;1.0;;
28455;SDS011;15682;56.742;38.866;2023-12-20T08:51:24;3.8;;;1.1;;
28455;SDS011;15682;56.742;38.866;2023-12-20T08:53:24;5.8;;;1.4;;
28455;SDS011;15682;56.742;38.866;2023-12-20T08:55:24;7.9;;;1.8;;
28455;SDS011;15682;56.742;38.866;2023-12-20T08:57:24;5.2;;;1.2;;
28455;SDS011;15682;56.742;38.866;2023-12-20T08:59:24;4.3;;;1.1;;
28455;SDS011;15682;56.742;38.866;2023-12-20T09:01:24;5.1;;;1.2;;
28455;SDS011;15682;56.742;38.866;2023-12-20T09:03:24;6.1;;;1.2;;
28455;SDS011;15682;56.742;38.866;2023-12-20T09:05:24;5.2;;;1.2;;
28455;SDS011;15682;56.742;38.866;2023-12-20T09:07:24;6.5;;;1.5;;
28455;SDS011;15682;56.742;38.866;2023-12-20T09:09:24;4.2;;;1.0;;
28455;SDS011;15682;56.742;38.866;2023-12-20T09:11:24;5.4;;;1.1;;
28455;SDS011;15682;56.742;38.866;2023-12-20T09:13:24;4.1;;;1.0;;
28455;SDS011;15682;56.742;38.866;2023-12-20T09:15:24;3.9;;;1.2;;
28455;SDS011;15682;56.742;38.866;2023-12-20T09:17:24;6.2;;;1.2;;
28455;SDS011;15682;56.742;38.866;2023-12-20T09:19:24;5.6;;;1.7;;
28455;SDS011;15682;56.742;38.866;2023-12-20T09:21:24;6.3;;;1.3;;
28455;SDS011;15682;56.742;38.866;2023-12-20T09:23:24;6.1;;;1.2;;
28455;SDS011;15682;56.742;38.866;2023-12-20T09:25:24;5.3;;;1.1;;
28455;SDS011;15682;56.742;38.866;2023-12-20T09:27:24;4.3;;;0.9;;
28455;SDS011;15682;56.742;38.866;2023-12-20T09:29:24;4.1;;;1.0;;
28455;SDS011;15682;56.742;38.866;2023-12-20T09:31:24;4.9;;;1.1;;
28455;SDS011;15682;56.742;38.866;2023-12-20T09:33:24;4.1;;;1.0;;
28455;SDS011;15682;56.742;38.866;2023-12-20T09:35:24;6.3;;;1.2;;
28455;SDS011;15682;56.742;38.866;2023-12-20T09:37:25;4.9;;;1.5;;
28455;SDS011;15682;56.742;38.866;2023-12-20T09:39:24;5.5;;;1.3;;
28455;SDS011;15682;56.742;38.866;2023-12-20T09:41:24;3.7;;;1.0;;
28455;SDS011;15682;56.742;38.866;2023-12-20T09:43:24;8.1;;;1.7;;
28455;SDS011;15682;56.742;38.866;2023-12-20T09:45:24;9.0;;;2.0;;
28455;SDS011;15682;56.742;38.866;2023-12-20T09:47:24;8.2;;;1.8;;
28455;SDS011;15682;56.742;38.866;2023-12-20T09:49:25;10.1;;;1.5;;
28455;SDS011;15682;56.742;38.866;2023-12-20T09:51:24;4.3;;;1.5;;
28455;SDS011;15682;56.742;38.866;2023-12-20T09:53:25;7.8;;;1.8;;
28455;SDS011;15682;56.742;38.866;2023-12-20T09:55:25;5.5;;;1.3;;
28455;SDS011;15682;56.742;38.866;2023-12-20T09:57:25;5.2;;;1.3;;
28455;SDS011;15682;56.742;38.866;2023-12-20T09:59:25;5.2;;;1.7;;
28455;SDS011;15682;56.742;38.866;2023-12-20T10:01:25;5.5;;;2.2;;
28455;SDS011;15682;56.742;38.866;2023-12-20T10:03:25;9.6;;;1.8;;
28455;SDS011;15682;56.742;38.866;2023-12-20T10:05:26;7.2;;;1.6;;
28455;SDS011;15682;56.742;38.866;2023-12-20T10:07:25;5.6;;;1.3;;
28455;SDS011;15682;56.742;38.866;2023-12-20T10:09:25;5.6;;;1.3;;
28455;SDS011;15682;56.742;38.866;2023-12-20T10:11:25;6.7;;;1.3;;
28455;SDS011;15682;56.742;38.866;2023-12-20T10:13:25;7.1;;;1.2;;
28455;SDS011;15682;56.742;38.866;2023-12-20T10:15:25;5.5;;;1.4;;
28455;SDS011;15682;56.742;38.866;2023-12-20T10:17:25;6.5;;;1.2;;
28455;SDS011;15682;56.742;38.866;2023-12-20T10:19:25;7.5;;;1.3;;
28455;SDS011;15682;56.742;38.866;2023-12-20T10:21:25;8.7;;;2.0;;
28455;SDS011;15682;56.742;38.866;2023-12-20T10:23:25;6.9;;;1.4;;
28455;SDS011;15682;56.742;38.866;2023-12-20T10:25:25;6.7;;;1.7;;
28455;SDS011;15682;56.742;38.866;2023-12-20T10:27:25;9.8;;;1.6;;
28455;SDS011;15682;56.742;38.866;2023-12-20T10:29:25;12.0;;;2.2;;
28455;SDS011;15682;56.742;38.866;2023-12-20T10:31:26;14.6;;;3.0;;
28455;SDS011;15682;56.742;38.866;2023-12-20T10:33:25;10.4;;;1.5;;
28455;SDS011;15682;56.742;38.866;2023-12-20T10:35:25;7.1;;;1.4;;
28455;SDS011;15682;56.742;38.866;2023-12-20T10:37:25;9.7;;;1.8;;
28455;SDS011;15682;56.742;38.866;2023-12-20T10:39:25;10.4;;;1.6;;
28455;SDS011;15682;56.742;38.866;2023-12-20T10:41:26;9.2;;;1.5;;
28455;SDS011;15682;56.742;38.866;2023-12-20T10:43:26;14.2;;;2.6;;
28455;SDS011;15682;56.742;38.866;2023-12-20T10:45:25;9.9;;;1.7;;
28455;SDS011;15682;56.742;38.866;2023-12-20T10:47:25;7.3;;;1.3;;
28455;SDS011;15682;56.742;38.866;2023-12-20T10:49:25;4.0;;;1.0;;
28455;SDS011;15682;56.742;38.866;2023-12-20T10:51:25;5.1;;;1.3;;
28455;SDS011;15682;56.742;38.866;2023-12-20T10:53:25;7.3;;;1.4;;
28455;SDS011;15682;56.742;38.866;2023-12-20T10:55:25;5.6;;;1.2;;
28455;SDS011;15682;56.742;38.866;2023-12-20T10:57:25;10.2;;;1.5;;
28455;SDS011;15682;56.742;38.866;2023-12-20T10:59:25;5.9;;;1.4;;
28455;SDS011;15682;56.742;38.866;2023-12-20T11:01:25;5.3;;;1.4;;
28455;SDS011;15682;56.742;38.866;2023-12-20T11:03:25;7.6;;;1.5;;
28455;SDS011;15682;56.742;38.866;2023-12-20T11:05:28;7.2;;;1.7;;
28455;SDS011;15682;56.742;38.866;2023-12-20T11:07:32;4.4;;;1.2;;
28455;SDS011;15682;56.742;38.866;2023-12-20T11:09:26;5.2;;;1.3;;
28455;SDS011;15682;56.742;38.866;2023-12-20T11:11:26;5.4;;;1.1;;
28455;SDS011;15682;56.742;38.866;2023-12-20T11:13:26;5.6;;;1.1;;
28455;SDS011;15682;56.742;38.866;2023-12-20T11:15:25;5.0;;;1.1;;
28455;SDS011;15682;56.742;38.866;2023-12-20T11:17:26;7.4;;;1.4;;
28455;SDS011;15682;56.742;38.866;2023-12-20T11:19:25;6.7;;;1.5;;
28455;SDS011;15682;56.742;38.866;2023-12-20T11:21:25;6.3;;;1.4;;
28455;SDS011;15682;56.742;38.866;2023-12-20T11:23:25;6.8;;;1.2;;
28455;SDS011;15682;56.742;38.866;2023-12-20T11:25:25;7.7;;;1.5;;
28455;SDS011;15682;56.742;38.866;2023-12-20T11:27:25;7.5;;;1.8;;
28455;SDS011;15682;56.742;38.866;2023-12-20T11:29:29;9.7;;;1.6;;
28455;SDS011;15682;56.742;38.866;2023-12-20T11:31:25;5.9;;;1.3;;
28455;SDS011;15682;56.742;38.866;2023-12-20T11:33:27;5.7;;;1.3;;
28455;SDS011;15682;56.742;38.866;2023-12-20T11:35:25;6.4;;;1.3;;
28455;SDS011;15682;56.742;38.866;2023-12-20T11:37:28;5.0;;;1.3;;
28455;SDS011;15682;56.742;38.866;2023-12-20T11:39:26;7.3;;;1.4;;
28455;SDS011;15682;56.742;38.866;2023-12-20T11:41:25;6.4;;;1.3;;
28455;SDS011;15682;56.742;38.866;2023-12-20T11:43:34;6.1;;;1.4;;
28455;SDS011;15682;56.742;38.866;2023-12-20T11:45:25;6.5;;;1.1;;
28455;SDS011;15682;56.742;38.866;2023-12-20T11:47:25;8.0;;;1.4;;
28455;SDS011;15682;56.742;38.866;2023-12-20T11:49:25;5.2;;;1.4;;
28455;SDS011;15682;56.742;38.866;2023-12-20T11:51:25;7.7;;;1.4;;
28455;SDS011;15682;56.742;38.866;2023-12-20T11:53:25;7.3;;;1.5;;
28455;SDS011;15682;56.742;38.866;2023-12-20T11:55:25;8.7;;;1.3;;
28455;SDS011;15682;56.742;38.866;2023-12-20T11:57:25;4.9;;;1.1;;
28455;SDS011;15682;56.742;38.866;2023-12-20T11:59:25;5.3;;;1.2;;
28455;SDS011;15682;56.742;38.866;2023-12-20T12:01:25;5.1;;;1.1;;
28455;SDS011;15682;56.742;38.866;2023-12-20T12:03:25;5.6;;;1.1;;
28455;SDS011;15682;56.742;38.866;2023-12-20T12:05:25;5.6;;;1.2;;
28455;SDS011;15682;56.742;38.866;2023-12-20T12:07:25;6.6;;;1.4;;
28455;SDS011;15682;56.742;38.866;2023-12-20T12:09:25;7.2;;;1.4;;
28455;SDS011;15682;56.742;38.866;2023-12-20T12:11:25;6.0;;;1.4;;
28455;SDS011;15682;56.742;38.866;2023-12-20T12:13:25;9.8;;;1.8;;